sensor_id;sensor_type;location;lat;lon;timestamp;pressure;altitude;pressure_sealevel;temperature;humidity
61674;BME280;47573;43.832;5.974;2023-09-19T00:01:36;95277.25;;;28.82;56.34
61674;BME280;47573;43.832;5.974;2023-09-19T00:08:17;95277.25;;;28.82;56.31
61674;BME280;47573;43.832;5.974;2023-09-19T00:14:58;95266.25;;;28.82;56.32
61674;BME280;47573;43.832;5.974;2023-09-19T00:21:39;95262.97;;;28.80;56.43
61674;BME280;47573;43.832;5.974;2023-09-19T00:28:19;95263.78;;;28.80;56.33
61674;BME280;47573;43.832;5.974;2023-09-19T00:35:01;95256.91;;;28.78;56.41
61674;BME280;47573;43.832;5.974;2023-09-19T00:41:42;95251.41;;;28.83;56.41
61674;BME280;47573;43.832;5.974;2023-09-19T00:48:23;95254.19;;;28.78;56.38
61674;BME280;47573;43.832;5.974;2023-09-19T00:55:06;95258.88;;;28.77;56.52
61674;BME280;47573;43.832;5.974;2023-09-19T01:01:47;95264.38;;;28.77;56.32
61674;BME280;47573;43.832;5.974;2023-09-19T01:08:28;95270.41;;;28.74;56.48
61674;BME280;47573;43.832;5.974;2023-09-19T01:15:15;95280.03;;;28.72;56.43
61674;BME280;47573;43.832;5.974;2023-09-19T01:22:04;95256.97;;;28.73;56.31
61674;BME280;47573;43.832;5.974;2023-09-19T01:28:54;95257.50;;;28.70;56.42
61674;BME280;47573;43.832;5.974;2023-09-19T01:35:41;95261.38;;;28.69;56.36
61674;BME280;47573;43.832;5.974;2023-09-19T01:42:29;95252.00;;;28.70;56.24
61674;BME280;47573;43.832;5.974;2023-09-19T01:49:22;95266.28;;;28.72;56.28
61674;BME280;47573;43.832;5.974;2023-09-19T01:56:08;95262.50;;;28.63;56.50
61674;BME280;47573;43.832;5.974;2023-09-19T02:02:56;95258.34;;;28.65;56.10
61674;BME280;47573;43.832;5.974;2023-09-19T02:09:38;95257.53;;;28.65;56.23
61674;BME280;47573;43.832;5.974;2023-09-19T02:16:20;95257.00;;;28.63;56.36
61674;BME280;47573;43.832;5.974;2023-09-19T02:23:00;95255.91;;;28.58;56.39
61674;BME280;47573;43.832;5.974;2023-09-19T02:29:41;95247.38;;;28.60;56.30
61674;BME280;47573;43.832;5.974;2023-09-19T02:36:23;95244.34;;;28.61;56.13
61674;BME280;47573;43.832;5.974;2023-09-19T02:43:04;95249.84;;;28.61;56.12
61674;BME280;47573;43.832;5.974;2023-09-19T02:49:44;95238.03;;;28.61;56.09
61674;BME280;47573;43.832;5.974;2023-09-19T02:56:26;95232.28;;;28.57;56.30
61674;BME280;47573;43.832;5.974;2023-09-19T03:03:08;95236.94;;;28.57;56.33
61674;BME280;47573;43.832;5.974;2023-09-19T03:09:48;95245.44;;;28.55;56.28
61674;BME280;47573;43.832;5.974;2023-09-19T03:16:30;95244.91;;;28.53;56.20
61674;BME280;47573;43.832;5.974;2023-09-19T03:23:10;95247.66;;;28.53;56.20
61674;BME280;47573;43.832;5.974;2023-09-19T03:29:51;95249.03;;;28.51;56.22
61674;BME280;47573;43.832;5.974;2023-09-19T03:36:35;95249.03;;;28.51;56.24
61674;BME280;47573;43.832;5.974;2023-09-19T03:43:16;95259.22;;;28.50;56.69
61674;BME280;47573;43.832;5.974;2023-09-19T03:49:56;95259.47;;;28.49;56.72
61674;BME280;47573;43.832;5.974;2023-09-19T03:56:38;95268.53;;;28.49;56.76
61674;BME280;47573;43.832;5.974;2023-09-19T04:03:19;95262.50;;;28.47;56.79
61674;BME280;47573;43.832;5.974;2023-09-19T04:09:59;95258.94;;;28.47;56.74
61674;BME280;47573;43.832;5.974;2023-09-19T04:16:41;95250.97;;;28.45;56.67
61674;BME280;47573;43.832;5.974;2023-09-19T04:23:21;95256.75;;;28.44;56.81
61674;BME280;47573;43.832;5.974;2023-09-19T04:30:02;95266.34;;;28.51;56.97
61674;BME280;47573;43.832;5.974;2023-09-19T04:36:44;95260.94;;;28.06;53.42
61674;BME280;47573;43.832;5.974;2023-09-19T04:43:25;95251.59;;;27.92;53.33
61674;BME280;47573;43.832;5.974;2023-09-19T04:50:07;95264.50;;;27.81;53.43
61674;BME280;47573;43.832;5.974;2023-09-19T04:56:49;95273.00;;;27.65;52.97
61674;BME280;47573;43.832;5.974;2023-09-19T05:03:30;95273.00;;;27.55;52.50
61674;BME280;47573;43.832;5.974;2023-09-19T05:10:10;95282.28;;;27.34;53.23
61674;BME280;47573;43.832;5.974;2023-09-19T05:16:52;95289.91;;;27.17;53.21
61674;BME280;47573;43.832;5.974;2023-09-19T05:23:33;95289.94;;;27.22;53.77
61674;BME280;47573;43.832;5.974;2023-09-19T05:30:13;95286.31;;;27.11;53.88
61674;BME280;47573;43.832;5.974;2023-09-19T05:36:55;95289.56;;;27.03;53.83
61674;BME280;47573;43.832;5.974;2023-09-19T05:43:36;95288.19;;;26.90;53.80
61674;BME280;47573;43.832;5.974;2023-09-19T05:50:16;95293.34;;;26.87;54.10
61674;BME280;47573;43.832;5.974;2023-09-19T05:56:59;95292.06;;;27.04;54.52
61674;BME280;47573;43.832;5.974;2023-09-19T06:03:39;95298.38;;;27.10;54.48
61674;BME280;47573;43.832;5.974;2023-09-19T06:10:20;95284.69;;;27.15;54.35
61674;BME280;47573;43.832;5.974;2023-09-19T06:17:01;95296.50;;;27.26;54.83
61674;BME280;47573;43.832;5.974;2023-09-19T06:23:42;95297.06;;;27.33;55.76
61674;BME280;47573;43.832;5.974;2023-09-19T06:30:24;95291.63;;;27.53;55.13
61674;BME280;47573;43.832;5.974;2023-09-19T06:37:06;95290.56;;;27.64;55.16
61674;BME280;47573;43.832;5.974;2023-09-19T06:43:46;95288.91;;;27.68;55.13
61674;BME280;47573;43.832;5.974;2023-09-19T06:50:27;95290.00;;;27.82;54.84
61674;BME280;47573;43.832;5.974;2023-09-19T06:57:08;95293.31;;;27.89;54.63
61674;BME280;47573;43.832;5.974;2023-09-19T07:03:49;95286.16;;;27.93;54.34
61674;BME280;47573;43.832;5.974;2023-09-19T07:10:30;95295.53;;;28.02;54.37
61674;BME280;47573;43.832;5.974;2023-09-19T07:17:12;95297.75;;;28.00;54.27
61674;BME280;47573;43.832;5.974;2023-09-19T07:23:52;95295.78;;;28.16;53.79
61674;BME280;47573;43.832;5.974;2023-09-19T07:30:35;95286.72;;;28.20;53.53
61674;BME280;47573;43.832;5.974;2023-09-19T07:37:17;95297.97;;;28.24;53.44
61674;BME280;47573;43.832;5.974;2023-09-19T07:43:58;95300.16;;;28.32;53.27
61674;BME280;47573;43.832;5.974;2023-09-19T07:50:38;95305.94;;;28.35;53.29
61674;BME280;47573;43.832;5.974;2023-09-19T07:57:20;95295.47;;;28.42;52.84
61674;BME280;47573;43.832;5.974;2023-09-19T08:04:01;95291.09;;;28.41;53.17
61674;BME280;47573;43.832;5.974;2023-09-19T08:10:41;95302.03;;;28.46;52.93
61674;BME280;47573;43.832;5.974;2023-09-19T08:17:23;95303.44;;;28.44;53.17
61674;BME280;47573;43.832;5.974;2023-09-19T08:24:04;95289.97;;;28.52;52.72
61674;BME280;47573;43.832;5.974;2023-09-19T08:30:45;95290.53;;;28.54;52.76
61674;BME280;47573;43.832;5.974;2023-09-19T08:37:27;95292.72;;;28.57;52.63
61674;BME280;47573;43.832;5.974;2023-09-19T08:44:07;95297.69;;;28.60;52.35
61674;BME280;47573;43.832;5.974;2023-09-19T08:50:49;95301.50;;;28.59;52.52
61674;BME280;47573;43.832;5.974;2023-09-19T08:57:34;95290.53;;;28.65;52.47
61674;BME280;47573;43.832;5.974;2023-09-19T09:04:16;95294.06;;;28.65;52.55
61674;BME280;47573;43.832;5.974;2023-09-19T09:10:56;95299.31;;;28.67;52.42
61674;BME280;47573;43.832;5.974;2023-09-19T09:17:38;95299.75;;;28.89;52.34
61674;BME280;47573;43.832;5.974;2023-09-19T09:24:28;95290.09;;;28.96;52.37
61674;BME280;47573;43.832;5.974;2023-09-19T09:31:21;95288.41;;;29.05;51.42
61674;BME280;47573;43.832;5.974;2023-09-19T09:38:04;95295.25;;;29.13;51.53
61674;BME280;47573;43.832;5.974;2023-09-19T09:44:44;95289.16;;;29.26;50.99
61674;BME280;47573;43.832;5.974;2023-09-19T09:51:29;95297.16;;;29.22;51.16
61674;BME280;47573;43.832;5.974;2023-09-19T09:58:18;95297.47;;;29.21;51.25
61674;BME280;47573;43.832;5.974;2023-09-19T10:04:59;95290.19;;;29.40;50.96
61674;BME280;47573;43.832;5.974;2023-09-19T10:11:41;95284.69;;;29.40;50.54
61674;BME280;47573;43.832;5.974;2023-09-19T10:18:24;95284.13;;;29.43;50.43
61674;BME280;47573;43.832;5.974;2023-09-19T10:25:05;95273.63;;;29.50;50.82
61674;BME280;47573;43.832;5.974;2023-09-19T10:31:47;95282.97;;;29.49;50.56
61674;BME280;47573;43.832;5.974;2023-09-19T10:38:30;95281.19;;;29.68;49.25
61674;BME280;47573;43.832;5.974;2023-09-19T10:45:12;95279.13;;;29.50;49.63
61674;BME280;47573;43.832;5.974;2023-09-19T10:51:55;95274.97;;;29.53;49.15
61674;BME280;47573;43.832;5.974;2023-09-19T10:58:40;95268.66;;;29.52;49.23
61674;BME280;47573;43.832;5.974;2023-09-19T11:05:22;95266.38;;;29.64;48.59
61674;BME280;47573;43.832;5.974;2023-09-19T11:12:03;95263.44;;;29.51;49.42
61674;BME280;47573;43.832;5.974;2023-09-19T11:18:54;95257.59;;;29.57;49.80
61674;BME280;47573;43.832;5.974;2023-09-19T11:25:41;95261.09;;;29.68;49.66
61674;BME280;47573;43.832;5.974;2023-09-19T11:39:37;95255.81;;;29.81;50.40
61674;BME280;47573;43.832;5.974;2023-09-19T11:46:18;95247.06;;;29.74;50.95
61674;BME280;47573;43.832;5.974;2023-09-19T11:52:58;95240.97;;;29.77;51.51
61674;BME280;47573;43.832;5.974;2023-09-19T11:59:40;95238.22;;;29.72;51.89
61674;BME280;47573;43.832;5.974;2023-09-19T12:06:21;95239.88;;;29.78;52.17
61674;BME280;47573;43.832;5.974;2023-09-19T12:13:03;95232.00;;;29.95;51.38
61674;BME280;47573;43.832;5.974;2023-09-19T12:19:51;95227.41;;;29.86;52.01
61674;BME280;47573;43.832;5.974;2023-09-19T12:26:39;95218.19;;;30.00;51.09
61674;BME280;47573;43.832;5.974;2023-09-19T12:33:20;95208.44;;;29.84;51.46
61674;BME280;47573;43.832;5.974;2023-09-19T12:40:07;95196.84;;;29.87;51.30
61674;BME280;47573;43.832;5.974;2023-09-19T12:46:48;95193.22;;;29.92;51.37
61674;BME280;47573;43.832;5.974;2023-09-19T12:53:28;95183.06;;;30.16;50.35
61674;BME280;47573;43.832;5.974;2023-09-19T13:00:11;95192.69;;;29.90;51.22
61674;BME280;47573;43.832;5.974;2023-09-19T13:06:52;95194.72;;;29.79;51.59
61674;BME280;47573;43.832;5.974;2023-09-19T13:13:33;95190.31;;;29.78;51.48
61674;BME280;47573;43.832;5.974;2023-09-19T13:20:25;95181.06;;;29.64;52.06
61674;BME280;47573;43.832;5.974;2023-09-19T13:27:06;95168.91;;;29.70;51.95
61674;BME280;47573;43.832;5.974;2023-09-19T13:33:47;95171.94;;;29.69;51.98
61674;BME280;47573;43.832;5.974;2023-09-19T13:40:29;95159.53;;;29.71;51.70
61674;BME280;47573;43.832;5.974;2023-09-19T13:47:09;95164.97;;;29.81;51.34
61674;BME280;47573;43.832;5.974;2023-09-19T13:53:50;95160.59;;;29.75;51.76
61674;BME280;47573;43.832;5.974;2023-09-19T14:00:32;95155.94;;;29.76;51.35
61674;BME280;47573;43.832;5.974;2023-09-19T14:07:12;95145.13;;;29.84;51.07
61674;BME280;47573;43.832;5.974;2023-09-19T14:13:53;95139.69;;;29.79;51.57
61674;BME280;47573;43.832;5.974;2023-09-19T14:20:37;95155.09;;;29.75;51.79
61674;BME280;47573;43.832;5.974;2023-09-19T14:27:18;95161.19;;;29.72;51.53
61674;BME280;47573;43.832;5.974;2023-09-19T14:33:59;95167.25;;;29.69;51.68
61674;BME280;47573;43.832;5.974;2023-09-19T14:40:40;95166.66;;;29.77;50.97
61674;BME280;47573;43.832;5.974;2023-09-19T14:47:21;95156.44;;;30.06;50.14
61674;BME280;47573;43.832;5.974;2023-09-19T14:54:01;95172.91;;;30.40;47.53
61674;BME280;47573;43.832;5.974;2023-09-19T15:00:43;95181.22;;;30.59;46.74
61674;BME280;47573;43.832;5.974;2023-09-19T15:07:24;95180.38;;;30.58;45.74
61674;BME280;47573;43.832;5.974;2023-09-19T15:14:04;95178.84;;;30.71;45.11
61674;BME280;47573;43.832;5.974;2023-09-19T15:20:46;95168.44;;;30.68;45.39
61674;BME280;47573;43.832;5.974;2023-09-19T15:27:26;95164.81;;;30.49;45.39
61674;BME280;47573;43.832;5.974;2023-09-19T15:34:07;95164.94;;;30.39;46.33
61674;BME280;47573;43.832;5.974;2023-09-19T15:40:49;95159.78;;;30.56;45.01
61674;BME280;47573;43.832;5.974;2023-09-19T15:47:29;95168.31;;;30.54;44.08
61674;BME280;47573;43.832;5.974;2023-09-19T15:54:11;95173.16;;;30.44;44.82
61674;BME280;47573;43.832;5.974;2023-09-19T16:00:53;95177.22;;;30.46;44.00
61674;BME280;47573;43.832;5.974;2023-09-19T16:07:34;95171.28;;;30.39;44.90
61674;BME280;47573;43.832;5.974;2023-09-19T16:14:14;95168.56;;;30.34;44.22
61674;BME280;47573;43.832;5.974;2023-09-19T16:21:01;95177.56;;;30.40;44.58
61674;BME280;47573;43.832;5.974;2023-09-19T16:27:42;95165.41;;;30.46;42.46
61674;BME280;47573;43.832;5.974;2023-09-19T16:34:22;95161.53;;;30.47;42.50
61674;BME280;47573;43.832;5.974;2023-09-19T16:41:05;95164.31;;;30.18;42.52
61674;BME280;47573;43.832;5.974;2023-09-19T16:47:45;95166.41;;;30.26;42.20
61674;BME280;47573;43.832;5.974;2023-09-19T16:54:25;95167.50;;;30.30;42.08
61674;BME280;47573;43.832;5.974;2023-09-19T17:01:07;95155.28;;;30.12;42.06
61674;BME280;47573;43.832;5.974;2023-09-19T17:07:48;95163.13;;;30.00;42.66
61674;BME280;47573;43.832;5.974;2023-09-19T17:14:29;95161.50;;;29.99;42.47
61674;BME280;47573;43.832;5.974;2023-09-19T17:21:10;95167.44;;;29.83;42.64
61674;BME280;47573;43.832;5.974;2023-09-19T17:27:51;95160.03;;;29.78;42.41
61674;BME280;47573;43.832;5.974;2023-09-19T17:34:32;95160.56;;;29.80;42.07
61674;BME280;47573;43.832;5.974;2023-09-19T17:41:14;95163.91;;;29.77;42.20
61674;BME280;47573;43.832;5.974;2023-09-19T17:47:54;95174.50;;;29.60;42.72
61674;BME280;47573;43.832;5.974;2023-09-19T17:54:35;95174.66;;;29.40;42.67
61674;BME280;47573;43.832;5.974;2023-09-19T18:01:18;95172.91;;;29.54;42.60
61674;BME280;47573;43.832;5.974;2023-09-19T18:07:58;95160.31;;;29.48;42.51
61674;BME280;47573;43.832;5.974;2023-09-19T18:14:39;95156.50;;;29.39;42.60
61674;BME280;47573;43.832;5.974;2023-09-19T18:21:21;95145.38;;;29.20;42.75
61674;BME280;47573;43.832;5.974;2023-09-19T18:28:02;95161.59;;;29.22;42.86
61674;BME280;47573;43.832;5.974;2023-09-19T18:34:42;95162.66;;;29.26;42.94
61674;BME280;47573;43.832;5.974;2023-09-19T18:41:24;95161.63;;;29.12;42.91
61674;BME280;47573;43.832;5.974;2023-09-19T18:48:05;95163.03;;;29.09;42.99
61674;BME280;47573;43.832;5.974;2023-09-19T18:54:45;95181.25;;;29.00;43.23
61674;BME280;47573;43.832;5.974;2023-09-19T19:01:27;95177.22;;;28.83;44.01
61674;BME280;47573;43.832;5.974;2023-09-19T19:08:08;95186.59;;;28.77;44.32
61674;BME280;47573;43.832;5.974;2023-09-19T19:14:48;95198.72;;;28.66;44.37
61674;BME280;47573;43.832;5.974;2023-09-19T19:21:30;95223.47;;;28.66;44.46
61674;BME280;47573;43.832;5.974;2023-09-19T19:28:11;95211.91;;;28.69;44.95
61674;BME280;47573;43.832;5.974;2023-09-19T19:34:51;95230.66;;;28.56;45.64
61674;BME280;47573;43.832;5.974;2023-09-19T19:41:34;95235.03;;;28.47;45.02
61674;BME280;47573;43.832;5.974;2023-09-19T19:48:15;95228.16;;;28.50;45.64
61674;BME280;47573;43.832;5.974;2023-09-19T19:54:55;95229.28;;;28.39;45.60
61674;BME280;47573;43.832;5.974;2023-09-19T20:01:37;95240.56;;;28.32;45.92
61674;BME280;47573;43.832;5.974;2023-09-19T20:08:18;95247.75;;;28.23;46.04
61674;BME280;47573;43.832;5.974;2023-09-19T20:14:59;95234.81;;;28.29;45.78
61674;BME280;47573;43.832;5.974;2023-09-19T20:21:41;95229.63;;;28.22;45.60
61674;BME280;47573;43.832;5.974;2023-09-19T20:28:21;95231.81;;;28.25;46.05
61674;BME280;47573;43.832;5.974;2023-09-19T20:35:02;95241.72;;;28.21;46.64
61674;BME280;47573;43.832;5.974;2023-09-19T20:41:44;95246.69;;;28.04;46.98
61674;BME280;47573;43.832;5.974;2023-09-19T20:48:24;95251.63;;;28.02;46.82
61674;BME280;47573;43.832;5.974;2023-09-19T20:55:05;95252.16;;;27.99;46.58
61674;BME280;47573;43.832;5.974;2023-09-19T21:01:47;95249.41;;;27.94;46.50
61674;BME280;47573;43.832;5.974;2023-09-19T21:08:28;95252.72;;;27.86;46.82
61674;BME280;47573;43.832;5.974;2023-09-19T21:15:08;95265.06;;;27.83;46.77
61674;BME280;47573;43.832;5.974;2023-09-19T21:21:50;95243.94;;;27.79;47.06
61674;BME280;47573;43.832;5.974;2023-09-19T21:28:31;95238.44;;;27.79;46.77
61674;BME280;47573;43.832;5.974;2023-09-19T21:35:11;95225.00;;;27.72;46.90
61674;BME280;47573;43.832;5.974;2023-09-19T21:41:53;95225.81;;;27.68;46.62
61674;BME280;47573;43.832;5.974;2023-09-19T21:48:34;95213.22;;;27.67;46.87
61674;BME280;47573;43.832;5.974;2023-09-19T21:55:14;95218.69;;;27.62;46.65
61674;BME280;47573;43.832;5.974;2023-09-19T22:01:56;95234.63;;;27.55;47.86
61674;BME280;47573;43.832;5.974;2023-09-19T22:08:37;95253.81;;;28.00;47.52
61674;BME280;47573;43.832;5.974;2023-09-19T22:15:17;95263.13;;;28.19;47.38
61674;BME280;47573;43.832;5.974;2023-09-19T22:21:59;95297.16;;;28.28;47.71
61674;BME280;47573;43.832;5.974;2023-09-19T22:28:41;95301.81;;;28.33;47.95
61674;BME280;47573;43.832;5.974;2023-09-19T22:35:21;95285.34;;;28.33;48.39
61674;BME280;47573;43.832;5.974;2023-09-19T22:42:04;95258.13;;;28.36;48.66
61674;BME280;47573;43.832;5.974;2023-09-19T22:48:44;95238.63;;;28.43;48.63
61674;BME280;47573;43.832;5.974;2023-09-19T22:55:25;95247.69;;;28.43;48.85
61674;BME280;47573;43.832;5.974;2023-09-19T23:02:07;95244.38;;;28.51;49.01
61674;BME280;47573;43.832;5.974;2023-09-19T23:08:49;95239.94;;;28.55;49.12
61674;BME280;47573;43.832;5.974;2023-09-19T23:15:29;95242.19;;;28.58;49.25
61674;BME280;47573;43.832;5.974;2023-09-19T23:22:11;95258.09;;;28.67;49.22
61674;BME280;47573;43.832;5.974;2023-09-19T23:28:52;95255.88;;;28.69;49.27
61674;BME280;47573;43.832;5.974;2023-09-19T23:35:32;95262.47;;;28.73;49.31
61674;BME280;47573;43.832;5.974;2023-09-19T23:42:14;95261.34;;;28.79;49.23
61674;BME280;47573;43.832;5.974;2023-09-19T23:48:54;95259.66;;;28.78;49.24
61674;BME280;47573;43.832;5.974;2023-09-19T23:55:35;95265.69;;;28.85;49.06
